UAII 020530Z 32002MPS 290V010 9999 SCT015 M02/M05 Q1031 NOSIG RMK QFE737/0983
QNH:(hPa/inHg/mmHg)1031 / 30.45 / 773
QFE:(hPa/inHg/mmHg)980 / 28.93 / 735
Temperature-2
Dew Point-5
Visibility> 10000
Weather
Cloud CoverSCT (1500);
Transition Altitude10000 ft.
Transition LevelFL110
SQUAWK